sensor_id;sensor_type;location;lat;lon;timestamp;temperature;humidity
15554;DHT22;7878;44.632;10.942;2023-02-14T00:01:42;8.30;62.40
15554;DHT22;7878;44.632;10.942;2023-02-14T00:04:08;8.30;62.80
15554;DHT22;7878;44.632;10.942;2023-02-14T00:06:34;8.30;62.50
15554;DHT22;7878;44.632;10.942;2023-02-14T00:09:04;8.30;62.90
15554;DHT22;7878;44.632;10.942;2023-02-14T00:11:30;8.20;62.70
15554;DHT22;7878;44.632;10.942;2023-02-14T00:13:56;8.20;62.70
15554;DHT22;7878;44.632;10.942;2023-02-14T00:16:41;8.20;62.80
15554;DHT22;7878;44.632;10.942;2023-02-14T00:19:07;8.20;62.90
15554;DHT22;7878;44.632;10.942;2023-02-14T00:21:37;8.20;63.10
15554;DHT22;7878;44.632;10.942;2023-02-14T00:24:08;8.20;63.00
15554;DHT22;7878;44.632;10.942;2023-02-14T00:26:34;8.10;63.10
15554;DHT22;7878;44.632;10.942;2023-02-14T00:28:59;8.10;63.00
15554;DHT22;7878;44.632;10.942;2023-02-14T00:31:25;8.00;63.10
15554;DHT22;7878;44.632;10.942;2023-02-14T00:33:50;8.00;63.00
15554;DHT22;7878;44.632;10.942;2023-02-14T00:36:17;8.00;63.10
15554;DHT22;7878;44.632;10.942;2023-02-14T00:38:44;8.10;63.20
15554;DHT22;7878;44.632;10.942;2023-02-14T00:41:10;8.00;63.20
15554;DHT22;7878;44.632;10.942;2023-02-14T00:43:47;8.10;63.40
15554;DHT22;7878;44.632;10.942;2023-02-14T00:46:14;8.10;63.00
15554;DHT22;7878;44.632;10.942;2023-02-14T00:48:40;8.00;63.00
15554;DHT22;7878;44.632;10.942;2023-02-14T00:51:06;8.00;62.90
15554;DHT22;7878;44.632;10.942;2023-02-14T00:53:31;8.00;63.20
15554;DHT22;7878;44.632;10.942;2023-02-14T00:55:57;8.00;63.20
15554;DHT22;7878;44.632;10.942;2023-02-14T00:58:23;8.00;63.40
15554;DHT22;7878;44.632;10.942;2023-02-14T01:00:48;8.00;63.60
15554;DHT22;7878;44.632;10.942;2023-02-14T01:03:14;7.90;63.50
15554;DHT22;7878;44.632;10.942;2023-02-14T01:05:40;7.90;63.30
15554;DHT22;7878;44.632;10.942;2023-02-14T01:08:06;8.00;63.10
15554;DHT22;7878;44.632;10.942;2023-02-14T01:10:31;7.90;63.60
15554;DHT22;7878;44.632;10.942;2023-02-14T01:12:57;7.90;63.60
15554;DHT22;7878;44.632;10.942;2023-02-14T01:15:23;7.90;63.20
15554;DHT22;7878;44.632;10.942;2023-02-14T01:17:49;7.80;63.50
15554;DHT22;7878;44.632;10.942;2023-02-14T01:20:15;7.80;63.40
15554;DHT22;7878;44.632;10.942;2023-02-14T01:22:40;7.80;63.60
15554;DHT22;7878;44.632;10.942;2023-02-14T01:25:06;7.80;63.40
15554;DHT22;7878;44.632;10.942;2023-02-14T01:27:32;7.80;63.60
15554;DHT22;7878;44.632;10.942;2023-02-14T01:29:57;7.70;63.50
15554;DHT22;7878;44.632;10.942;2023-02-14T01:32:23;7.70;63.30
15554;DHT22;7878;44.632;10.942;2023-02-14T01:34:49;7.70;63.80
15554;DHT22;7878;44.632;10.942;2023-02-14T01:37:14;7.60;63.90
15554;DHT22;7878;44.632;10.942;2023-02-14T01:39:40;7.60;64.00
15554;DHT22;7878;44.632;10.942;2023-02-14T01:42:06;7.60;64.10
15554;DHT22;7878;44.632;10.942;2023-02-14T01:46:59;7.60;63.80
15554;DHT22;7878;44.632;10.942;2023-02-14T01:49:43;7.60;64.00
15554;DHT22;7878;44.632;10.942;2023-02-14T01:52:14;7.60;64.00
15554;DHT22;7878;44.632;10.942;2023-02-14T01:54:47;7.50;63.90
15554;DHT22;7878;44.632;10.942;2023-02-14T01:57:15;7.50;63.80
15554;DHT22;7878;44.632;10.942;2023-02-14T01:59:47;7.50;64.30
15554;DHT22;7878;44.632;10.942;2023-02-14T02:02:14;7.50;64.40
15554;DHT22;7878;44.632;10.942;2023-02-14T02:04:43;7.50;64.40
15554;DHT22;7878;44.632;10.942;2023-02-14T02:07:13;7.40;64.30
15554;DHT22;7878;44.632;10.942;2023-02-14T02:09:47;7.40;64.20
15554;DHT22;7878;44.632;10.942;2023-02-14T02:12:13;7.30;64.70
15554;DHT22;7878;44.632;10.942;2023-02-14T02:14:39;7.30;64.40
15554;DHT22;7878;44.632;10.942;2023-02-14T02:25:10;7.30;64.20
15554;DHT22;7878;44.632;10.942;2023-02-14T02:30:48;7.30;65.30
15554;DHT22;7878;44.632;10.942;2023-02-14T02:44:07;7.10;64.70
15554;DHT22;7878;44.632;10.942;2023-02-14T02:46:44;7.10;64.70
15554;DHT22;7878;44.632;10.942;2023-02-14T02:52:02;7.10;64.70
15554;DHT22;7878;44.632;10.942;2023-02-14T02:54:57;7.10;64.60
15554;DHT22;7878;44.632;10.942;2023-02-14T02:57:29;7.10;64.80
15554;DHT22;7878;44.632;10.942;2023-02-14T02:59:56;7.00;64.50
15554;DHT22;7878;44.632;10.942;2023-02-14T03:02:36;7.00;64.60
15554;DHT22;7878;44.632;10.942;2023-02-14T03:05:23;7.00;64.90
15554;DHT22;7878;44.632;10.942;2023-02-14T03:07:49;7.00;64.60
15554;DHT22;7878;44.632;10.942;2023-02-14T03:10:25;7.00;64.90
15554;DHT22;7878;44.632;10.942;2023-02-14T03:37:19;6.80;65.40
15554;DHT22;7878;44.632;10.942;2023-02-14T03:42:49;6.80;65.90
15554;DHT22;7878;44.632;10.942;2023-02-14T03:45:21;6.70;65.70
15554;DHT22;7878;44.632;10.942;2023-02-14T03:47:49;6.70;65.90
15554;DHT22;7878;44.632;10.942;2023-02-14T03:50:18;6.70;65.80
15554;DHT22;7878;44.632;10.942;2023-02-14T03:52:45;6.70;65.90
15554;DHT22;7878;44.632;10.942;2023-02-14T03:55:15;6.70;65.80
15554;DHT22;7878;44.632;10.942;2023-02-14T03:57:55;6.70;65.60
15554;DHT22;7878;44.632;10.942;2023-02-14T04:00:22;6.70;66.80
15554;DHT22;7878;44.632;10.942;2023-02-14T04:02:53;6.60;64.90
15554;DHT22;7878;44.632;10.942;2023-02-14T04:05:23;6.50;65.20
15554;DHT22;7878;44.632;10.942;2023-02-14T04:07:55;6.50;64.70
15554;DHT22;7878;44.632;10.942;2023-02-14T04:10:21;6.40;65.20
15554;DHT22;7878;44.632;10.942;2023-02-14T04:12:48;6.50;65.40
15554;DHT22;7878;44.632;10.942;2023-02-14T04:15:15;6.40;65.20
15554;DHT22;7878;44.632;10.942;2023-02-14T04:17:41;6.40;65.30
15554;DHT22;7878;44.632;10.942;2023-02-14T04:20:25;6.30;65.10
15554;DHT22;7878;44.632;10.942;2023-02-14T04:22:51;6.30;65.10
15554;DHT22;7878;44.632;10.942;2023-02-14T04:25:18;6.30;65.00
15554;DHT22;7878;44.632;10.942;2023-02-14T04:27:44;6.20;64.80
15554;DHT22;7878;44.632;10.942;2023-02-14T04:30:10;6.20;64.90
15554;DHT22;7878;44.632;10.942;2023-02-14T04:32:37;6.10;65.00
15554;DHT22;7878;44.632;10.942;2023-02-14T04:35:03;6.10;65.20
15554;DHT22;7878;44.632;10.942;2023-02-14T04:37:29;6.10;65.20
15554;DHT22;7878;44.632;10.942;2023-02-14T04:39:55;6.10;65.00
15554;DHT22;7878;44.632;10.942;2023-02-14T04:42:20;6.10;64.80
15554;DHT22;7878;44.632;10.942;2023-02-14T04:44:46;6.10;64.70
15554;DHT22;7878;44.632;10.942;2023-02-14T04:47:12;6.20;65.00
15554;DHT22;7878;44.632;10.942;2023-02-14T04:49:37;6.20;65.10
15554;DHT22;7878;44.632;10.942;2023-02-14T04:52:03;6.20;65.10
15554;DHT22;7878;44.632;10.942;2023-02-14T04:54:29;6.10;65.30
15554;DHT22;7878;44.632;10.942;2023-02-14T04:56:55;6.10;65.30
15554;DHT22;7878;44.632;10.942;2023-02-14T04:59:21;6.10;65.10
15554;DHT22;7878;44.632;10.942;2023-02-14T05:01:47;6.10;65.00
15554;DHT22;7878;44.632;10.942;2023-02-14T05:04:13;6.10;65.10
15554;DHT22;7878;44.632;10.942;2023-02-14T05:06:39;6.10;65.30
15554;DHT22;7878;44.632;10.942;2023-02-14T05:09:04;6.00;65.60
15554;DHT22;7878;44.632;10.942;2023-02-14T05:11:30;6.10;65.60
15554;DHT22;7878;44.632;10.942;2023-02-14T05:13:56;6.10;65.60
15554;DHT22;7878;44.632;10.942;2023-02-14T05:16:22;6.10;65.60
15554;DHT22;7878;44.632;10.942;2023-02-14T05:18:48;6.10;65.70
15554;DHT22;7878;44.632;10.942;2023-02-14T05:21:13;6.10;65.60
15554;DHT22;7878;44.632;10.942;2023-02-14T05:23:39;6.10;65.80
15554;DHT22;7878;44.632;10.942;2023-02-14T05:26:05;6.00;65.70
15554;DHT22;7878;44.632;10.942;2023-02-14T05:28:31;6.00;65.90
15554;DHT22;7878;44.632;10.942;2023-02-14T05:30:56;6.00;66.20
15554;DHT22;7878;44.632;10.942;2023-02-14T05:33:23;6.00;66.40
15554;DHT22;7878;44.632;10.942;2023-02-14T05:35:49;6.00;66.20
15554;DHT22;7878;44.632;10.942;2023-02-14T05:38:14;6.00;66.30
15554;DHT22;7878;44.632;10.942;2023-02-14T05:40:40;6.00;66.30
15554;DHT22;7878;44.632;10.942;2023-02-14T05:43:06;6.00;66.60
15554;DHT22;7878;44.632;10.942;2023-02-14T05:45:32;6.00;66.70
15554;DHT22;7878;44.632;10.942;2023-02-14T05:47:58;6.00;66.80
15554;DHT22;7878;44.632;10.942;2023-02-14T05:50:24;6.00;66.30
15554;DHT22;7878;44.632;10.942;2023-02-14T05:52:49;6.00;66.30
15554;DHT22;7878;44.632;10.942;2023-02-14T05:55:15;6.00;66.80
15554;DHT22;7878;44.632;10.942;2023-02-14T05:57:41;5.90;66.30
15554;DHT22;7878;44.632;10.942;2023-02-14T06:00:07;6.00;67.00
15554;DHT22;7878;44.632;10.942;2023-02-14T06:02:33;6.00;66.70
15554;DHT22;7878;44.632;10.942;2023-02-14T06:04:59;5.90;66.50
15554;DHT22;7878;44.632;10.942;2023-02-14T06:07:24;5.90;66.20
15554;DHT22;7878;44.632;10.942;2023-02-14T06:09:50;5.90;66.30
15554;DHT22;7878;44.632;10.942;2023-02-14T06:12:16;6.00;66.60
15554;DHT22;7878;44.632;10.942;2023-02-14T06:14:41;5.90;66.60
15554;DHT22;7878;44.632;10.942;2023-02-14T06:17:08;5.90;66.70
15554;DHT22;7878;44.632;10.942;2023-02-14T06:19:34;5.90;66.70
15554;DHT22;7878;44.632;10.942;2023-02-14T06:22:00;5.90;66.70
15554;DHT22;7878;44.632;10.942;2023-02-14T06:24:26;5.90;66.70
15554;DHT22;7878;44.632;10.942;2023-02-14T06:26:52;5.90;66.80
15554;DHT22;7878;44.632;10.942;2023-02-14T06:29:17;5.90;66.70
15554;DHT22;7878;44.632;10.942;2023-02-14T06:31:43;6.00;66.80
15554;DHT22;7878;44.632;10.942;2023-02-14T06:34:08;6.00;66.80
15554;DHT22;7878;44.632;10.942;2023-02-14T06:36:34;6.00;66.80
15554;DHT22;7878;44.632;10.942;2023-02-14T06:39:00;6.10;67.10
15554;DHT22;7878;44.632;10.942;2023-02-14T06:41:25;6.00;66.80
15554;DHT22;7878;44.632;10.942;2023-02-14T06:43:51;6.10;66.90
15554;DHT22;7878;44.632;10.942;2023-02-14T06:46:18;6.00;67.30
15554;DHT22;7878;44.632;10.942;2023-02-14T06:48:44;6.10;68.20
15554;DHT22;7878;44.632;10.942;2023-02-14T06:51:10;6.10;67.10
15554;DHT22;7878;44.632;10.942;2023-02-14T06:53:36;6.10;66.90
15554;DHT22;7878;44.632;10.942;2023-02-14T06:56:02;6.20;67.20
15554;DHT22;7878;44.632;10.942;2023-02-14T06:58:28;6.20;67.00
15554;DHT22;7878;44.632;10.942;2023-02-14T07:00:55;6.20;67.10
15554;DHT22;7878;44.632;10.942;2023-02-14T07:03:21;6.20;67.00
15554;DHT22;7878;44.632;10.942;2023-02-14T07:05:47;6.20;67.00
15554;DHT22;7878;44.632;10.942;2023-02-14T07:08:13;6.30;67.40
15554;DHT22;7878;44.632;10.942;2023-02-14T07:10:39;6.30;67.00
15554;DHT22;7878;44.632;10.942;2023-02-14T07:13:05;6.40;67.10
15554;DHT22;7878;44.632;10.942;2023-02-14T07:15:31;6.50;66.70
15554;DHT22;7878;44.632;10.942;2023-02-14T07:17:56;6.60;66.80
15554;DHT22;7878;44.632;10.942;2023-02-14T07:20:23;6.60;66.50
15554;DHT22;7878;44.632;10.942;2023-02-14T07:22:49;6.70;66.50
15554;DHT22;7878;44.632;10.942;2023-02-14T07:25:15;6.80;66.00
15554;DHT22;7878;44.632;10.942;2023-02-14T07:27:41;6.80;65.90
15554;DHT22;7878;44.632;10.942;2023-02-14T07:30:08;6.80;66.00
15554;DHT22;7878;44.632;10.942;2023-02-14T07:32:35;6.80;65.50
15554;DHT22;7878;44.632;10.942;2023-02-14T07:35:00;6.80;66.00
15554;DHT22;7878;44.632;10.942;2023-02-14T07:37:26;6.90;66.30
15554;DHT22;7878;44.632;10.942;2023-02-14T07:39:52;7.00;66.00
15554;DHT22;7878;44.632;10.942;2023-02-14T07:42:17;7.00;65.80
15554;DHT22;7878;44.632;10.942;2023-02-14T07:44:43;7.10;65.90
15554;DHT22;7878;44.632;10.942;2023-02-14T07:47:10;7.20;65.40
15554;DHT22;7878;44.632;10.942;2023-02-14T07:49:36;7.40;65.10
15554;DHT22;7878;44.632;10.942;2023-02-14T07:52:03;7.40;64.60
15554;DHT22;7878;44.632;10.942;2023-02-14T07:54:28;7.50;65.10
15554;DHT22;7878;44.632;10.942;2023-02-14T07:56:54;7.50;64.90
15554;DHT22;7878;44.632;10.942;2023-02-14T07:59:20;7.60;64.80
15554;DHT22;7878;44.632;10.942;2023-02-14T08:01:46;7.60;64.80
15554;DHT22;7878;44.632;10.942;2023-02-14T08:04:12;7.70;65.00
15554;DHT22;7878;44.632;10.942;2023-02-14T08:06:40;7.70;64.70
15554;DHT22;7878;44.632;10.942;2023-02-14T08:09:06;7.80;64.70
15554;DHT22;7878;44.632;10.942;2023-02-14T08:11:35;7.90;64.30
15554;DHT22;7878;44.632;10.942;2023-02-14T08:14:19;8.00;64.30
15554;DHT22;7878;44.632;10.942;2023-02-14T08:16:45;8.10;64.20
15554;DHT22;7878;44.632;10.942;2023-02-14T08:19:10;8.10;64.80
15554;DHT22;7878;44.632;10.942;2023-02-14T08:21:36;8.20;64.30
15554;DHT22;7878;44.632;10.942;2023-02-14T08:24:02;8.40;64.30
15554;DHT22;7878;44.632;10.942;2023-02-14T08:26:27;8.50;64.00
15554;DHT22;7878;44.632;10.942;2023-02-14T08:28:53;8.60;64.10
15554;DHT22;7878;44.632;10.942;2023-02-14T08:31:28;9.30;64.20
15554;DHT22;7878;44.632;10.942;2023-02-14T08:33:54;10.70;61.90
15554;DHT22;7878;44.632;10.942;2023-02-14T08:36:20;12.30;59.60
15554;DHT22;7878;44.632;10.942;2023-02-14T08:38:45;14.10;57.40
15554;DHT22;7878;44.632;10.942;2023-02-14T08:41:15;15.30;55.20
15554;DHT22;7878;44.632;10.942;2023-02-14T08:43:41;16.00;53.60
15554;DHT22;7878;44.632;10.942;2023-02-14T08:46:07;17.00;52.70
15554;DHT22;7878;44.632;10.942;2023-02-14T08:48:34;17.50;51.70
15554;DHT22;7878;44.632;10.942;2023-02-14T08:51:04;17.60;50.70
15554;DHT22;7878;44.632;10.942;2023-02-14T08:53:30;17.60;50.70
15554;DHT22;7878;44.632;10.942;2023-02-14T08:56:01;17.50;50.40
15554;DHT22;7878;44.632;10.942;2023-02-14T08:58:27;17.50;50.60
15554;DHT22;7878;44.632;10.942;2023-02-14T09:00:53;17.70;51.20
15554;DHT22;7878;44.632;10.942;2023-02-14T09:03:20;18.30;51.10
15554;DHT22;7878;44.632;10.942;2023-02-14T09:05:45;18.70;50.70
15554;DHT22;7878;44.632;10.942;2023-02-14T09:08:11;18.30;50.40
15554;DHT22;7878;44.632;10.942;2023-02-14T09:10:37;18.20;51.40
15554;DHT22;7878;44.632;10.942;2023-02-14T09:13:02;18.70;50.60
15554;DHT22;7878;44.632;10.942;2023-02-14T09:15:29;19.60;49.90
15554;DHT22;7878;44.632;10.942;2023-02-14T09:17:54;19.70;49.00
15554;DHT22;7878;44.632;10.942;2023-02-14T09:20:20;19.40;49.50
15554;DHT22;7878;44.632;10.942;2023-02-14T09:22:46;19.10;49.20
15554;DHT22;7878;44.632;10.942;2023-02-14T09:25:12;18.70;49.90
15554;DHT22;7878;44.632;10.942;2023-02-14T09:27:38;18.40;50.00
15554;DHT22;7878;44.632;10.942;2023-02-14T09:30:05;18.40;50.40
15554;DHT22;7878;44.632;10.942;2023-02-14T09:32:31;19.60;50.50
15554;DHT22;7878;44.632;10.942;2023-02-14T09:34:57;20.00;49.70
15554;DHT22;7878;44.632;10.942;2023-02-14T09:37:22;19.30;49.20
15554;DHT22;7878;44.632;10.942;2023-02-14T09:39:48;18.30;49.50
15554;DHT22;7878;44.632;10.942;2023-02-14T09:44:53;17.10;50.60
15554;DHT22;7878;44.632;10.942;2023-02-14T09:47:32;16.90;51.00
15554;DHT22;7878;44.632;10.942;2023-02-14T09:50:00;16.50;51.00
15554;DHT22;7878;44.632;10.942;2023-02-14T09:52:29;16.30;51.40
15554;DHT22;7878;44.632;10.942;2023-02-14T09:54:58;16.70;51.90
15554;DHT22;7878;44.632;10.942;2023-02-14T09:57:42;17.10;51.90
15554;DHT22;7878;44.632;10.942;2023-02-14T10:05:18;18.10;50.70
15554;DHT22;7878;44.632;10.942;2023-02-14T10:07:56;18.90;49.40
15554;DHT22;7878;44.632;10.942;2023-02-14T10:10:39;20.20;48.00
15554;DHT22;7878;44.632;10.942;2023-02-14T10:21:30;23.20;46.30
15554;DHT22;7878;44.632;10.942;2023-02-14T10:24:20;22.60;45.70
15554;DHT22;7878;44.632;10.942;2023-02-14T10:26:49;22.20;45.00
15554;DHT22;7878;44.632;10.942;2023-02-14T10:29:17;22.00;47.30
15554;DHT22;7878;44.632;10.942;2023-02-14T10:31:54;22.20;46.50
15554;DHT22;7878;44.632;10.942;2023-02-14T10:47:56;25.40;44.20
15554;DHT22;7878;44.632;10.942;2023-02-14T10:50:36;25.80;43.40
15554;DHT22;7878;44.632;10.942;2023-02-14T10:56:06;29.80;41.20
15554;DHT22;7878;44.632;10.942;2023-02-14T10:58:35;31.80;37.20
15554;DHT22;7878;44.632;10.942;2023-02-14T11:01:12;33.00;39.50
15554;DHT22;7878;44.632;10.942;2023-02-14T11:03:41;34.10;38.10
15554;DHT22;7878;44.632;10.942;2023-02-14T11:06:09;34.80;37.20
15554;DHT22;7878;44.632;10.942;2023-02-14T11:08:37;34.90;37.20
15554;DHT22;7878;44.632;10.942;2023-02-14T11:13:51;35.60;36.50
15554;DHT22;7878;44.632;10.942;2023-02-14T11:19:14;35.80;33.20
15554;DHT22;7878;44.632;10.942;2023-02-14T11:21:44;35.00;32.90
15554;DHT22;7878;44.632;10.942;2023-02-14T11:24:34;32.70;36.40
15554;DHT22;7878;44.632;10.942;2023-02-14T11:27:16;31.20;34.00
15554;DHT22;7878;44.632;10.942;2023-02-14T11:29:45;30.80;36.00
15554;DHT22;7878;44.632;10.942;2023-02-14T11:32:22;32.30;39.10
15554;DHT22;7878;44.632;10.942;2023-02-14T11:39:48;36.30;35.80
15554;DHT22;7878;44.632;10.942;2023-02-14T11:44:58;37.30;32.10
15554;DHT22;7878;44.632;10.942;2023-02-14T11:47:29;38.00;35.30
15554;DHT22;7878;44.632;10.942;2023-02-14T11:50:05;38.40;33.60
15554;DHT22;7878;44.632;10.942;2023-02-14T11:52:32;38.50;32.30
15554;DHT22;7878;44.632;10.942;2023-02-14T11:55:04;38.40;34.40
15554;DHT22;7878;44.632;10.942;2023-02-14T11:57:36;38.40;34.90
15554;DHT22;7878;44.632;10.942;2023-02-14T12:00:16;38.50;32.50
15554;DHT22;7878;44.632;10.942;2023-02-14T12:02:47;38.60;31.50
15554;DHT22;7878;44.632;10.942;2023-02-14T12:05:17;38.50;33.40
15554;DHT22;7878;44.632;10.942;2023-02-14T12:07:45;37.60;34.10
15554;DHT22;7878;44.632;10.942;2023-02-14T12:10:19;35.90;35.10
15554;DHT22;7878;44.632;10.942;2023-02-14T12:15:36;35.70;31.00
15554;DHT22;7878;44.632;10.942;2023-02-14T12:20:47;37.30;33.50
15554;DHT22;7878;44.632;10.942;2023-02-14T12:23:38;37.50;30.60
15554;DHT22;7878;44.632;10.942;2023-02-14T12:26:25;36.70;29.10
15554;DHT22;7878;44.632;10.942;2023-02-14T12:31:23;36.40;33.00
15554;DHT22;7878;44.632;10.942;2023-02-14T12:33:48;37.00;34.50
15554;DHT22;7878;44.632;10.942;2023-02-14T12:36:17;37.50;35.30
15554;DHT22;7878;44.632;10.942;2023-02-14T12:39:24;37.80;34.50
15554;DHT22;7878;44.632;10.942;2023-02-14T12:42:06;38.00;30.50
15554;DHT22;7878;44.632;10.942;2023-02-14T13:07:40;31.60;32.70
15554;DHT22;7878;44.632;10.942;2023-02-14T13:20:55;23.10;41.60
15554;DHT22;7878;44.632;10.942;2023-02-14T13:23:35;22.40;42.00
15554;DHT22;7878;44.632;10.942;2023-02-14T13:26:16;22.00;41.80
15554;DHT22;7878;44.632;10.942;2023-02-14T13:29:06;21.50;41.50
15554;DHT22;7878;44.632;10.942;2023-02-14T13:31:35;21.10;41.80
15554;DHT22;7878;44.632;10.942;2023-02-14T13:36:57;20.50;42.40
15554;DHT22;7878;44.632;10.942;2023-02-14T13:40:17;20.30;43.20
15554;DHT22;7878;44.632;10.942;2023-02-14T13:53:04;19.40;43.80
15554;DHT22;7878;44.632;10.942;2023-02-14T13:55:34;19.30;43.80
15554;DHT22;7878;44.632;10.942;2023-02-14T14:00:49;19.10;44.20
15554;DHT22;7878;44.632;10.942;2023-02-14T14:04:00;19.10;44.40
15554;DHT22;7878;44.632;10.942;2023-02-14T14:06:07;18.90;43.90
15554;DHT22;7878;44.632;10.942;2023-02-14T14:08:34;18.90;44.20
15554;DHT22;7878;44.632;10.942;2023-02-14T14:21:36;18.50;44.60
15554;DHT22;7878;44.632;10.942;2023-02-14T14:24:31;18.40;44.40
15554;DHT22;7878;44.632;10.942;2023-02-14T14:29:34;18.20;44.80
15554;DHT22;7878;44.632;10.942;2023-02-14T14:32:18;18.20;45.00
15554;DHT22;7878;44.632;10.942;2023-02-14T14:35:03;18.20;45.30
15554;DHT22;7878;44.632;10.942;2023-02-14T14:37:35;18.10;45.00
15554;DHT22;7878;44.632;10.942;2023-02-14T14:40:06;18.00;45.30
15554;DHT22;7878;44.632;10.942;2023-02-14T14:42:37;18.00;45.30
15554;DHT22;7878;44.632;10.942;2023-02-14T14:45:08;17.90;45.30
15554;DHT22;7878;44.632;10.942;2023-02-14T14:47:44;17.90;45.20
15554;DHT22;7878;44.632;10.942;2023-02-14T14:50:22;17.90;45.30
15554;DHT22;7878;44.632;10.942;2023-02-14T14:52:50;17.80;45.20
15554;DHT22;7878;44.632;10.942;2023-02-14T14:55:30;17.70;45.10
15554;DHT22;7878;44.632;10.942;2023-02-14T14:57:58;17.70;45.50
15554;DHT22;7878;44.632;10.942;2023-02-14T15:00:37;17.70;46.00
15554;DHT22;7878;44.632;10.942;2023-02-14T15:03:13;17.60;45.40
15554;DHT22;7878;44.632;10.942;2023-02-14T15:05:43;17.60;45.60
15554;DHT22;7878;44.632;10.942;2023-02-14T15:08:21;17.50;45.70
15554;DHT22;7878;44.632;10.942;2023-02-14T15:16:22;17.40;46.00
15554;DHT22;7878;44.632;10.942;2023-02-14T15:18:49;17.40;45.90
15554;DHT22;7878;44.632;10.942;2023-02-14T15:21:15;17.40;45.90
15554;DHT22;7878;44.632;10.942;2023-02-14T15:23:42;17.30;46.00
15554;DHT22;7878;44.632;10.942;2023-02-14T15:26:37;17.20;46.10
15554;DHT22;7878;44.632;10.942;2023-02-14T15:29:05;17.20;46.50
15554;DHT22;7878;44.632;10.942;2023-02-14T15:31:34;17.20;46.40
15554;DHT22;7878;44.632;10.942;2023-02-14T15:34:03;17.10;46.40
15554;DHT22;7878;44.632;10.942;2023-02-14T15:36:30;17.10;46.40
15554;DHT22;7878;44.632;10.942;2023-02-14T15:38:57;17.00;46.70
15554;DHT22;7878;44.632;10.942;2023-02-14T15:41:23;17.00;46.60
15554;DHT22;7878;44.632;10.942;2023-02-14T15:43:53;16.90;46.70
15554;DHT22;7878;44.632;10.942;2023-02-14T15:46:28;16.80;46.60
15554;DHT22;7878;44.632;10.942;2023-02-14T15:48:57;16.80;47.00
15554;DHT22;7878;44.632;10.942;2023-02-14T15:51:29;16.80;47.10
15554;DHT22;7878;44.632;10.942;2023-02-14T15:54:01;16.80;47.20
15554;DHT22;7878;44.632;10.942;2023-02-14T15:56:40;16.70;47.10
15554;DHT22;7878;44.632;10.942;2023-02-14T15:59:16;16.70;47.40
15554;DHT22;7878;44.632;10.942;2023-02-14T16:01:49;16.60;47.60
15554;DHT22;7878;44.632;10.942;2023-02-14T16:04:22;16.60;47.50
15554;DHT22;7878;44.632;10.942;2023-02-14T16:07:06;16.50;47.80
15554;DHT22;7878;44.632;10.942;2023-02-14T16:09:33;16.40;47.70
15554;DHT22;7878;44.632;10.942;2023-02-14T16:11:59;16.40;47.80
15554;DHT22;7878;44.632;10.942;2023-02-14T16:14:35;16.30;47.70
15554;DHT22;7878;44.632;10.942;2023-02-14T16:17:12;16.20;47.80
15554;DHT22;7878;44.632;10.942;2023-02-14T16:19:40;16.20;48.20
15554;DHT22;7878;44.632;10.942;2023-02-14T16:22:08;16.10;48.20
15554;DHT22;7878;44.632;10.942;2023-02-14T16:24:34;16.10;48.40
15554;DHT22;7878;44.632;10.942;2023-02-14T16:27:03;16.00;48.40
15554;DHT22;7878;44.632;10.942;2023-02-14T16:29:35;15.90;48.50
15554;DHT22;7878;44.632;10.942;2023-02-14T16:32:12;15.90;48.60
15554;DHT22;7878;44.632;10.942;2023-02-14T16:34:41;15.80;49.00
15554;DHT22;7878;44.632;10.942;2023-02-14T16:37:16;15.80;49.00
15554;DHT22;7878;44.632;10.942;2023-02-14T16:39:42;15.70;49.20
15554;DHT22;7878;44.632;10.942;2023-02-14T16:42:15;15.60;49.50
15554;DHT22;7878;44.632;10.942;2023-02-14T16:44:42;15.50;49.70
15554;DHT22;7878;44.632;10.942;2023-02-14T16:47:12;15.50;49.80
15554;DHT22;7878;44.632;10.942;2023-02-14T16:49:39;15.40;49.80
15554;DHT22;7878;44.632;10.942;2023-02-14T16:52:05;15.30;49.90
15554;DHT22;7878;44.632;10.942;2023-02-14T16:54:31;15.20;50.40
15554;DHT22;7878;44.632;10.942;2023-02-14T16:57:02;15.20;50.30
15554;DHT22;7878;44.632;10.942;2023-02-14T16:59:29;15.10;50.50
15554;DHT22;7878;44.632;10.942;2023-02-14T17:01:58;15.10;50.50
15554;DHT22;7878;44.632;10.942;2023-02-14T17:04:24;15.00;50.80
15554;DHT22;7878;44.632;10.942;2023-02-14T17:06:52;14.90;50.80
15554;DHT22;7878;44.632;10.942;2023-02-14T17:09:23;14.90;51.20
15554;DHT22;7878;44.632;10.942;2023-02-14T17:11:51;14.80;51.30
15554;DHT22;7878;44.632;10.942;2023-02-14T17:14:22;14.70;52.20
15554;DHT22;7878;44.632;10.942;2023-02-14T17:16:49;14.70;52.50
15554;DHT22;7878;44.632;10.942;2023-02-14T17:19:15;14.70;51.90
15554;DHT22;7878;44.632;10.942;2023-02-14T17:21:42;14.60;52.20
15554;DHT22;7878;44.632;10.942;2023-02-14T17:24:08;14.50;52.00
15554;DHT22;7878;44.632;10.942;2023-02-14T17:26:33;14.50;52.30
15554;DHT22;7878;44.632;10.942;2023-02-14T17:28:59;14.40;52.60
15554;DHT22;7878;44.632;10.942;2023-02-14T17:31:25;14.40;53.00
15554;DHT22;7878;44.632;10.942;2023-02-14T17:33:52;14.30;53.00
15554;DHT22;7878;44.632;10.942;2023-02-14T17:36:19;14.30;53.10
15554;DHT22;7878;44.632;10.942;2023-02-14T17:38:44;14.30;53.10
15554;DHT22;7878;44.632;10.942;2023-02-14T17:41:15;14.20;53.60
15554;DHT22;7878;44.632;10.942;2023-02-14T17:43:43;14.20;53.60
15554;DHT22;7878;44.632;10.942;2023-02-14T17:46:09;14.10;53.50
15554;DHT22;7878;44.632;10.942;2023-02-14T17:48:35;14.00;53.50
15554;DHT22;7878;44.632;10.942;2023-02-14T17:51:05;14.00;53.80
15554;DHT22;7878;44.632;10.942;2023-02-14T17:53:32;14.00;54.30
15554;DHT22;7878;44.632;10.942;2023-02-14T17:58:37;13.90;54.50
15554;DHT22;7878;44.632;10.942;2023-02-14T18:01:08;13.80;54.30
15554;DHT22;7878;44.632;10.942;2023-02-14T18:03:34;13.80;54.60
15554;DHT22;7878;44.632;10.942;2023-02-14T18:06:01;13.80;54.40
15554;DHT22;7878;44.632;10.942;2023-02-14T18:08:28;13.70;54.30
15554;DHT22;7878;44.632;10.942;2023-02-14T18:10:54;13.70;54.40
15554;DHT22;7878;44.632;10.942;2023-02-14T18:13:21;13.60;54.60
15554;DHT22;7878;44.632;10.942;2023-02-14T18:15:47;13.60;54.80
15554;DHT22;7878;44.632;10.942;2023-02-14T18:18:13;13.50;54.60
15554;DHT22;7878;44.632;10.942;2023-02-14T18:20:39;13.50;55.00
15554;DHT22;7878;44.632;10.942;2023-02-14T18:23:04;13.40;54.60
15554;DHT22;7878;44.632;10.942;2023-02-14T18:25:35;13.40;54.90
15554;DHT22;7878;44.632;10.942;2023-02-14T18:28:01;13.30;54.90
15554;DHT22;7878;44.632;10.942;2023-02-14T18:30:27;13.30;55.00
15554;DHT22;7878;44.632;10.942;2023-02-14T18:32:53;13.30;55.40
15554;DHT22;7878;44.632;10.942;2023-02-14T18:35:18;13.20;55.10
15554;DHT22;7878;44.632;10.942;2023-02-14T18:37:44;13.20;55.10
15554;DHT22;7878;44.632;10.942;2023-02-14T18:40:11;13.20;55.30
15554;DHT22;7878;44.632;10.942;2023-02-14T18:42:44;13.10;55.30
15554;DHT22;7878;44.632;10.942;2023-02-14T18:45:09;13.10;55.40
15554;DHT22;7878;44.632;10.942;2023-02-14T18:47:35;13.00;55.50
15554;DHT22;7878;44.632;10.942;2023-02-14T18:50:01;13.00;56.10